createdAt,value
2023-03-26T00:00:38.324Z,3.17
2023-03-26T00:03:08.325Z,2.91
2023-03-26T00:05:38.366Z,2.57
2023-03-26T00:08:11.997Z,2.43
2023-03-26T00:10:44.328Z,2.48
2023-03-26T00:13:14.822Z,2.58
2023-03-26T00:15:44.790Z,2.43
2023-03-26T00:18:14.759Z,2.56
2023-03-26T00:20:45.602Z,2.42
2023-03-26T00:23:18.180Z,2.84
2023-03-26T00:25:51.069Z,2.61
2023-03-26T00:28:21.713Z,2.61
2023-03-26T00:30:52.173Z,2.93
2023-03-26T00:33:22.147Z,2.56
2023-03-26T00:35:55.577Z,2.56
2023-03-26T00:38:30.960Z,2.79
2023-03-26T00:41:06.259Z,2.59
2023-03-26T00:43:38.585Z,2.93
2023-03-26T00:46:08.633Z,2.81
2023-03-26T00:51:15.689Z,2.89
2023-03-26T00:53:50.650Z,2.72
2023-03-26T00:56:21.499Z,2.76
2023-03-26T00:58:52.092Z,3.21
2023-03-26T01:01:28.481Z,2.95
2023-03-26T01:04:08.638Z,3.26
2023-03-26T01:06:45.426Z,3.18
2023-03-26T01:09:21.789Z,2.72
2023-03-26T01:11:53.415Z,3.18
2023-03-26T01:14:29.134Z,2.96
2023-03-26T01:17:01.638Z,2.87
2023-03-26T01:19:41.025Z,3.09
2023-03-26T01:22:14.930Z,2.86
2023-03-26T01:24:53.830Z,2.92
2023-03-26T01:27:34.903Z,3.38
2023-03-26T01:30:16.027Z,2.90
2023-03-26T01:32:58.395Z,3.13
2023-03-26T01:35:42.363Z,3.10
2023-03-26T01:38:25.663Z,3.10
2023-03-26T01:41:07.470Z,3.10
2023-03-26T01:43:48.875Z,2.78
2023-03-26T01:46:22.035Z,3.41
2023-03-26T01:48:52.437Z,3.17
2023-03-26T01:51:31.659Z,3.07
2023-03-26T01:54:04.614Z,3.06
2023-03-26T01:56:51.012Z,3.01
2023-03-26T01:59:42.931Z,3.38
2023-03-26T02:02:16.570Z,2.95
2023-03-26T02:04:55.852Z,3.34
2023-03-26T02:07:34.726Z,3.08
2023-03-26T02:10:13.898Z,2.77
2023-03-26T02:12:47.724Z,2.81
2023-03-26T02:15:17.651Z,2.90
2023-03-26T02:17:49.477Z,2.83
2023-03-26T02:20:21.633Z,3.08
2023-03-26T02:22:51.831Z,3.12
2023-03-26T02:25:24.679Z,3.21
2023-03-26T02:27:57.517Z,3.47
2023-03-26T02:30:29.960Z,3.07
2023-03-26T02:33:02.582Z,2.94
2023-03-26T02:35:46.058Z,2.87
2023-03-26T02:38:16.766Z,2.97
2023-03-26T02:40:46.701Z,3.09
2023-03-26T02:43:19.459Z,3.06
2023-03-26T02:45:49.692Z,3.19
2023-03-26T02:48:50.002Z,2.89
2023-03-26T02:51:28.981Z,3.24
2023-03-26T02:54:07.244Z,3.48
2023-03-26T02:57:03.724Z,3.46
2023-03-26T02:59:50.550Z,2.80
2023-03-26T03:02:58.095Z,2.93
2023-03-26T03:05:34.771Z,3.24
2023-03-26T03:08:30.244Z,3.09
2023-03-26T03:11:13.291Z,2.61
2023-03-26T03:13:52.636Z,3.06
2023-03-26T03:16:31.407Z,2.99
2023-03-26T03:19:06.516Z,3.11
2023-03-26T03:21:44.158Z,3.14
2023-03-26T03:24:18.490Z,3.22
2023-03-26T03:26:55.139Z,3.39
2023-03-26T03:29:55.952Z,2.98
2023-03-26T03:32:54.721Z,2.90
2023-03-26T03:35:27.870Z,3.04
2023-03-26T03:38:01.444Z,2.72
2023-03-26T03:40:35.852Z,2.92
2023-03-26T03:43:05.933Z,2.62
2023-03-26T03:45:44.706Z,2.83
2023-03-26T03:48:40.876Z,2.79
2023-03-26T03:51:11.868Z,2.97
2023-03-26T03:53:57.589Z,2.75
2023-03-26T03:56:45.866Z,2.71
2023-03-26T03:59:15.874Z,3.23
2023-03-26T04:01:46.897Z,2.93
2023-03-26T04:04:32.922Z,3.11
2023-03-26T04:07:05.628Z,3.14
2023-03-26T04:10:00.136Z,2.96
2023-03-26T04:12:34.547Z,3.30
2023-03-26T04:15:06.652Z,3.18
2023-03-26T04:17:42.672Z,2.86
2023-03-26T04:20:17.564Z,3.01
2023-03-26T04:22:49.856Z,3.31
2023-03-26T04:25:21.709Z,3.16
2023-03-26T04:28:06.771Z,2.99
2023-03-26T04:30:56.105Z,3.17
2023-03-26T04:33:39.325Z,3.56
2023-03-26T04:36:14.268Z,3.56
2023-03-26T04:38:46.788Z,3.51
2023-03-26T04:41:18.809Z,3.38
2023-03-26T04:44:06.096Z,3.16
2023-03-26T04:46:55.412Z,3.24
2023-03-26T04:49:33.047Z,3.33
2023-03-26T04:52:05.843Z,3.07
2023-03-26T04:55:02.837Z,3.13
2023-03-26T04:57:42.881Z,3.22
2023-03-26T05:00:21.707Z,3.25
2023-03-26T05:02:58.046Z,3.24
2023-03-26T05:05:29.590Z,3.75
2023-03-26T05:08:04.864Z,3.39
2023-03-26T05:10:35.072Z,3.69
2023-03-26T05:13:08.016Z,3.16
2023-03-26T05:15:40.164Z,3.37
2023-03-26T05:18:13.417Z,3.69
2023-03-26T05:20:50.344Z,3.38
2023-03-26T05:23:23.160Z,3.67
2023-03-26T05:26:07.730Z,3.24
2023-03-26T05:28:39.024Z,3.06
2023-03-26T05:31:27.158Z,3.29
2023-03-26T05:34:00.662Z,3.68
2023-03-26T05:36:31.733Z,4.06
2023-03-26T05:39:25.800Z,3.79
2023-03-26T05:42:01.613Z,4.08
2023-03-26T05:44:42.835Z,3.71
2023-03-26T05:47:21.446Z,3.80
2023-03-26T05:49:51.735Z,3.55
2023-03-26T05:52:21.872Z,3.41
2023-03-26T05:55:16.204Z,3.48
2023-03-26T05:58:04.659Z,3.20
2023-03-26T06:01:00.166Z,3.59
2023-03-26T06:03:40.920Z,3.38
2023-03-26T06:06:21.467Z,3.57
2023-03-26T06:09:02.180Z,3.76
2023-03-26T06:11:36.151Z,3.62
2023-03-26T06:14:07.369Z,3.59
2023-03-26T06:16:39.586Z,3.71
2023-03-26T06:19:21.122Z,3.70
2023-03-26T06:22:11.903Z,4.08
2023-03-26T06:25:01.797Z,3.60
2023-03-26T06:27:54.396Z,3.63
2023-03-26T06:30:47.112Z,3.59
2023-03-26T06:33:26.121Z,3.71
2023-03-26T06:35:56.238Z,3.67
2023-03-26T06:38:26.794Z,3.43
2023-03-26T06:40:56.994Z,3.50
2023-03-26T06:43:33.919Z,3.61
2023-03-26T06:46:21.355Z,3.67
2023-03-26T06:48:57.488Z,3.95
2023-03-26T06:51:51.936Z,4.19
2023-03-26T06:54:40.460Z,3.83
2023-03-26T06:57:27.906Z,4.11
2023-03-26T07:00:36.016Z,3.50
2023-03-26T07:03:28.622Z,3.87
2023-03-26T07:06:17.380Z,34.33
2023-03-26T07:09:06.752Z,27.15
2023-03-26T07:12:09.394Z,5.45
2023-03-26T07:15:07.193Z,3.02
2023-03-26T07:18:03.972Z,3.03
2023-03-26T07:20:37.925Z,3.14
2023-03-26T07:23:09.026Z,3.37
2023-03-26T07:25:47.373Z,3.55
2023-03-26T07:28:43.221Z,3.60
2023-03-26T07:32:02.391Z,3.57
2023-03-26T07:34:57.891Z,3.76
2023-03-26T07:38:15.260Z,3.81
2023-03-26T07:41:13.962Z,4.14
2023-03-26T07:44:23.479Z,22.28
2023-03-26T07:47:30.108Z,19.21
2023-03-26T07:50:24.884Z,4.63
2023-03-26T07:53:09.191Z,3.37
2023-03-26T07:56:09.312Z,3.82
2023-03-26T07:59:02.455Z,3.40
2023-03-26T08:02:39.197Z,3.29
2023-03-26T08:05:33.635Z,3.43
2023-03-26T08:08:21.636Z,3.07
2023-03-26T08:11:17.027Z,2.94
2023-03-26T08:14:12.691Z,2.97
2023-03-26T08:16:53.465Z,3.13
2023-03-26T08:19:50.876Z,2.78
2023-03-26T08:22:30.965Z,3.34
2023-03-26T08:25:29.759Z,3.32
2023-03-26T08:28:18.713Z,3.72
2023-03-26T08:30:50.527Z,3.19
2023-03-26T08:33:23.458Z,3.30
2023-03-26T08:35:53.461Z,3.93
2023-03-26T08:38:26.425Z,5.01
2023-03-26T08:41:37.900Z,6.23
2023-03-26T08:44:47.913Z,4.93
2023-03-26T08:47:55.862Z,5.05
2023-03-26T08:51:04.602Z,5.79
2023-03-26T08:54:16.817Z,3.38
2023-03-26T08:56:57.088Z,3.86
2023-03-26T09:00:13.137Z,6.07
2023-03-26T09:03:11.129Z,5.04
2023-03-26T09:06:24.234Z,2.88
2023-03-26T09:09:30.218Z,2.81
2023-03-26T09:12:31.595Z,2.87
2023-03-26T09:15:30.900Z,4.04
2023-03-26T09:18:32.812Z,3.17
2023-03-26T09:21:25.690Z,2.97
2023-03-26T09:24:28.988Z,3.25
2023-03-26T09:27:18.794Z,3.07
2023-03-26T09:30:36.350Z,3.39
2023-03-26T09:33:52.399Z,3.02
2023-03-26T09:36:33.355Z,2.85
2023-03-26T09:39:16.572Z,2.85
2023-03-26T09:42:05.141Z,2.78
2023-03-26T09:45:09.161Z,3.15
2023-03-26T09:48:16.526Z,6.66
2023-03-26T09:51:03.685Z,7.79
2023-03-26T09:53:54.959Z,3.01
2023-03-26T09:56:36.776Z,3.49
2023-03-26T09:59:37.920Z,3.20
2023-03-26T10:02:45.926Z,3.40
2023-03-26T10:05:35.157Z,2.92
2023-03-26T10:08:32.173Z,3.10
2023-03-26T10:11:15.089Z,2.53
2023-03-26T10:14:01.405Z,2.43
2023-03-26T10:16:47.721Z,2.69
2023-03-26T10:19:52.302Z,1.83
2023-03-26T10:22:41.318Z,4.23
2023-03-26T10:25:32.224Z,6.04
2023-03-26T10:28:21.316Z,3.01
2023-03-26T10:31:10.065Z,1.75
2023-03-26T10:33:57.009Z,1.22
2023-03-26T10:36:40.417Z,1.33
2023-03-26T10:39:37.799Z,1.52
2023-03-26T10:42:34.470Z,1.48
2023-03-26T10:45:25.779Z,1.71
2023-03-26T10:48:23.459Z,2.03
2023-03-26T10:51:07.335Z,2.46
2023-03-26T10:53:49.645Z,1.60
2023-03-26T10:56:28.354Z,1.80
2023-03-26T10:59:00.065Z,1.30
2023-03-26T11:01:43.285Z,1.31
2023-03-26T11:04:29.994Z,1.21
2023-03-26T11:07:13.628Z,1.28
2023-03-26T11:09:54.525Z,1.31
2023-03-26T11:12:34.855Z,1.37
2023-03-26T11:15:25.712Z,2.10
2023-03-26T11:18:08.531Z,1.61
2023-03-26T11:20:44.636Z,2.12
2023-03-26T11:23:36.136Z,1.36
2023-03-26T11:26:17.650Z,1.16
2023-03-26T11:29:31.306Z,1.31
2023-03-26T11:32:09.225Z,2.17
2023-03-26T11:34:44.908Z,2.22
2023-03-26T11:37:23.311Z,1.37
2023-03-26T11:39:58.432Z,1.41
2023-03-26T11:42:31.934Z,1.60
2023-03-26T11:45:06.731Z,1.40
2023-03-26T11:47:47.484Z,1.50
2023-03-26T11:50:24.032Z,1.65
2023-03-26T11:52:59.327Z,1.46
2023-03-26T11:55:30.187Z,1.36
2023-03-26T11:58:06.206Z,1.31
2023-03-26T12:00:36.990Z,1.52
2023-03-26T12:03:07.026Z,1.81
2023-03-26T12:05:51.251Z,1.93
2023-03-26T12:08:24.029Z,1.78
2023-03-26T12:11:09.508Z,1.32
2023-03-26T12:13:47.764Z,1.75
2023-03-26T12:16:21.038Z,1.49
2023-03-26T12:19:03.831Z,1.65
2023-03-26T12:21:47.213Z,1.73
2023-03-26T12:24:31.105Z,1.70
2023-03-26T12:27:04.001Z,1.89
2023-03-26T12:29:37.021Z,1.96
2023-03-26T12:32:10.249Z,2.52
2023-03-26T12:34:42.685Z,2.12
2023-03-26T12:37:38.720Z,1.79
2023-03-26T12:40:16.143Z,1.67
2023-03-26T12:44:56.578Z,2.52
2023-03-26T12:46:44.172Z,2.13
2023-03-26T12:48:43.785Z,1.68
2023-03-26T12:51:24.664Z,1.40
2023-03-26T12:54:15.400Z,1.56
2023-03-26T12:57:11.778Z,1.91
2023-03-26T13:00:06.650Z,1.74
2023-03-26T13:03:05.857Z,1.76
2023-03-26T13:05:54.680Z,1.83
2023-03-26T13:09:05.109Z,1.97
2023-03-26T13:11:50.354Z,1.74
2023-03-26T13:14:36.059Z,1.97
2023-03-26T13:17:19.354Z,1.98
2023-03-26T13:20:07.361Z,1.78
2023-03-26T13:22:49.240Z,1.66
2023-03-26T13:25:37.574Z,1.91
2023-03-26T13:28:25.904Z,2.70
2023-03-26T13:31:10.164Z,1.69
2023-03-26T13:33:53.157Z,1.64
2023-03-26T13:36:39.006Z,1.73
2023-03-26T13:39:26.341Z,1.77
2023-03-26T13:42:18.406Z,2.06
2023-03-26T13:45:06.041Z,1.53
2023-03-26T13:47:41.205Z,2.15
2023-03-26T13:50:25.571Z,1.87
2023-03-26T13:53:05.863Z,1.91
2023-03-26T13:55:41.562Z,2.10
2023-03-26T13:58:23.073Z,1.77
2023-03-26T14:01:02.959Z,1.58
2023-03-26T14:03:45.800Z,1.75
2023-03-26T14:06:32.011Z,2.90
2023-03-26T14:09:13.095Z,1.81
2023-03-26T14:11:57.958Z,1.83
2023-03-26T14:14:37.767Z,1.65
2023-03-26T14:17:20.137Z,1.75
2023-03-26T14:20:37.619Z,2.03
2023-03-26T14:23:26.651Z,1.94
2023-03-26T14:26:16.922Z,1.66
2023-03-26T14:29:12.520Z,2.26
2023-03-26T14:31:54.672Z,2.14
2023-03-26T14:34:43.073Z,2.03
2023-03-26T14:37:46.590Z,2.37
2023-03-26T14:40:31.475Z,1.70
2023-03-26T14:43:25.501Z,1.66
2023-03-26T14:46:14.345Z,1.78
2023-03-26T14:49:09.781Z,2.30
2023-03-26T14:52:02.011Z,1.87
2023-03-26T14:54:38.072Z,1.60
2023-03-26T14:57:48.059Z,1.56
2023-03-26T15:00:51.224Z,1.59
2023-03-26T15:03:56.263Z,1.60
2023-03-26T15:07:01.807Z,1.59
2023-03-26T15:10:07.561Z,1.47
2023-03-26T15:12:53.796Z,1.90
2023-03-26T15:15:59.816Z,1.87
2023-03-26T15:19:04.999Z,2.75
2023-03-26T15:22:19.588Z,2.13
2023-03-26T15:25:34.897Z,1.80
2023-03-26T15:28:49.452Z,1.50
2023-03-26T15:31:53.082Z,1.19
2023-03-26T15:35:09.811Z,1.16
2023-03-26T15:38:18.082Z,1.83
2023-03-26T15:41:05.244Z,1.57
2023-03-26T15:44:23.332Z,1.62
2023-03-26T15:47:30.322Z,1.61
2023-03-26T15:50:19.015Z,1.61
2023-03-26T15:52:59.680Z,1.53
2023-03-26T15:55:37.660Z,1.61
2023-03-26T15:58:18.850Z,1.46
2023-03-26T16:01:02.962Z,1.12
2023-03-26T16:03:50.211Z,1.10
2023-03-26T16:06:37.856Z,1.51
2023-03-26T16:09:34.293Z,1.25
2023-03-26T16:12:32.758Z,1.18
2023-03-26T16:15:28.579Z,1.41
2023-03-26T16:18:31.436Z,3.64
2023-03-26T16:21:47.793Z,6.34
2023-03-26T16:24:33.962Z,2.79
2023-03-26T16:27:28.929Z,2.28
2023-03-26T16:30:29.117Z,1.40
2023-03-26T16:33:15.595Z,1.60
2023-03-26T16:36:07.515Z,1.66
2023-03-26T16:39:04.050Z,1.18
2023-03-26T16:41:36.578Z,1.16
2023-03-26T16:44:20.265Z,1.10
2023-03-26T16:47:02.525Z,1.27
2023-03-26T16:50:08.138Z,1.41
2023-03-26T16:52:52.998Z,1.18
2023-03-26T16:55:37.424Z,2.58
2023-03-26T16:58:18.478Z,1.70
2023-03-26T17:00:55.147Z,2.80
2023-03-26T17:03:37.806Z,3.35
2023-03-26T17:06:26.650Z,2.41
2023-03-26T17:09:04.962Z,1.96
2023-03-26T17:11:51.377Z,2.50
2023-03-26T17:14:35.254Z,3.24
2023-03-26T17:17:27.974Z,2.60
2023-03-26T17:20:09.386Z,3.27
2023-03-26T17:22:46.009Z,3.61
2023-03-26T17:25:39.040Z,2.60
2023-03-26T17:28:45.439Z,3.66
2023-03-26T17:31:28.050Z,3.27
2023-03-26T17:34:17.639Z,3.02
2023-03-26T17:36:48.208Z,1.72
2023-03-26T17:39:37.109Z,1.61
2023-03-26T17:42:29.485Z,1.61
2023-03-26T17:45:04.571Z,1.50
2023-03-26T17:47:41.363Z,1.81
2023-03-26T17:50:19.325Z,1.61
2023-03-26T17:52:58.655Z,1.75
2023-03-26T17:55:32.471Z,1.97
2023-03-26T17:58:05.483Z,1.71
2023-03-26T18:00:44.529Z,1.66
2023-03-26T18:03:22.951Z,2.10
2023-03-26T18:06:01.064Z,2.30
2023-03-26T18:08:59.652Z,1.44
2023-03-26T18:11:53.084Z,1.37
2023-03-26T18:15:07.276Z,1.45
2023-03-26T18:17:48.237Z,1.49
2023-03-26T18:20:24.762Z,1.43
2023-03-26T18:22:56.116Z,1.55
2023-03-26T18:25:30.584Z,1.76
2023-03-26T18:28:08.949Z,1.88
2023-03-26T18:30:52.136Z,2.49
2023-03-26T18:33:26.111Z,2.22
2023-03-26T18:35:59.024Z,1.51
2023-03-26T18:38:35.428Z,1.52
2023-03-26T18:41:27.438Z,6.26
2023-03-26T18:43:58.503Z,6.65
2023-03-26T18:46:31.800Z,5.26
2023-03-26T18:49:06.251Z,2.90
2023-03-26T18:51:46.407Z,2.66
2023-03-26T18:54:23.878Z,3.70
2023-03-26T18:56:55.320Z,2.47
2023-03-26T18:59:32.237Z,2.66
2023-03-26T19:02:07.557Z,2.06
2023-03-26T19:04:41.968Z,2.32
2023-03-26T19:07:22.517Z,2.05
2023-03-26T19:09:56.592Z,1.99
2023-03-26T19:12:32.999Z,3.30
2023-03-26T19:15:12.091Z,3.55
2023-03-26T19:17:46.151Z,3.01
2023-03-26T19:20:25.117Z,3.00
2023-03-26T19:22:59.958Z,2.09
2023-03-26T19:25:36.354Z,1.83
2023-03-26T19:28:08.387Z,2.47
2023-03-26T19:30:44.220Z,4.75
2023-03-26T19:33:20.620Z,3.85
2023-03-26T19:35:57.788Z,2.78
2023-03-26T19:38:31.142Z,1.63
2023-03-26T19:41:01.208Z,1.67
2023-03-26T19:43:31.714Z,1.37
2023-03-26T19:46:02.592Z,1.44
2023-03-26T19:48:46.176Z,1.08
2023-03-26T19:51:35.954Z,1.13
2023-03-26T19:54:16.194Z,1.12
2023-03-26T19:56:46.278Z,0.99
2023-03-26T19:59:16.320Z,1.12
2023-03-26T20:01:46.321Z,1.22
2023-03-26T20:04:16.475Z,1.24
2023-03-26T20:06:50.049Z,1.22
2023-03-26T20:09:21.466Z,1.07
2023-03-26T20:11:52.700Z,1.23
2023-03-26T20:14:26.389Z,1.57
2023-03-26T20:16:56.985Z,2.67
2023-03-26T20:19:27.586Z,2.00
2023-03-26T20:22:02.465Z,1.76
2023-03-26T20:24:35.251Z,1.55
2023-03-26T20:27:05.287Z,1.35
2023-03-26T20:29:36.839Z,1.55
2023-03-26T20:32:09.721Z,1.90
2023-03-26T20:34:40.076Z,1.57
2023-03-26T20:37:12.648Z,1.92
2023-03-26T20:39:42.785Z,1.49
2023-03-26T20:42:15.929Z,1.75
2023-03-26T20:44:47.131Z,2.26
2023-03-26T20:47:17.470Z,2.69
2023-03-26T20:49:47.555Z,3.60
2023-03-26T20:52:20.140Z,2.83
2023-03-26T20:54:50.315Z,2.04
2023-03-26T20:57:20.324Z,1.69
2023-03-26T20:59:50.290Z,1.48
2023-03-26T21:02:20.494Z,1.37
2023-03-26T21:04:51.526Z,1.41
2023-03-26T21:07:24.095Z,1.32
2023-03-26T21:09:58.083Z,1.51
2023-03-26T21:12:36.070Z,1.67
2023-03-26T21:15:13.402Z,1.58
2023-03-26T21:17:53.689Z,1.62
2023-03-26T21:20:25.622Z,1.54
2023-03-26T21:23:11.681Z,1.51
2023-03-26T21:25:53.036Z,1.59
2023-03-26T21:28:42.212Z,1.62
2023-03-26T21:31:18.744Z,1.79
2023-03-26T21:33:51.124Z,1.61
2023-03-26T21:36:23.158Z,1.74
2023-03-26T21:38:57.070Z,1.93
2023-03-26T21:41:41.426Z,1.96
2023-03-26T21:44:11.889Z,2.06
2023-03-26T21:46:44.630Z,1.80
2023-03-26T21:49:17.927Z,1.82
2023-03-26T21:51:48.987Z,1.93
2023-03-26T21:54:31.002Z,1.83
2023-03-26T21:57:15.829Z,1.71
2023-03-26T21:59:54.806Z,1.90
2023-03-26T22:02:35.243Z,1.93
2023-03-26T22:05:17.867Z,1.98
2023-03-26T22:07:57.087Z,1.98
2023-03-26T22:10:29.655Z,1.99
2023-03-26T22:13:00.488Z,2.03
2023-03-26T22:15:31.361Z,2.33
2023-03-26T22:18:05.205Z,2.15
2023-03-26T22:20:35.667Z,2.09
2023-03-26T22:23:06.896Z,2.09
2023-03-26T22:25:39.900Z,2.16
2023-03-26T22:28:09.960Z,2.27
2023-03-26T22:30:40.166Z,2.44
2023-03-26T22:33:12.225Z,2.38
2023-03-26T22:35:44.807Z,2.25
2023-03-26T22:38:15.113Z,2.19
2023-03-26T22:40:47.840Z,2.22
2023-03-26T22:43:17.966Z,2.32
2023-03-26T22:45:53.761Z,2.25
2023-03-26T22:48:26.900Z,2.21
2023-03-26T22:51:05.534Z,2.08
2023-03-26T22:53:37.524Z,2.05
2023-03-26T22:56:11.750Z,1.86
2023-03-26T22:58:42.429Z,2.05
2023-03-26T23:01:16.992Z,1.94
2023-03-26T23:03:47.818Z,1.79
2023-03-26T23:06:19.013Z,1.50
2023-03-26T23:08:49.055Z,1.40
2023-03-26T23:11:24.267Z,1.01
2023-03-26T23:13:56.282Z,1.24
2023-03-26T23:16:26.714Z,1.17
2023-03-26T23:18:56.807Z,1.22
2023-03-26T23:21:26.854Z,1.08
2023-03-26T23:23:56.955Z,1.31
2023-03-26T23:26:34.951Z,1.20
2023-03-26T23:29:07.845Z,1.06
2023-03-26T23:31:38.531Z,1.06
2023-03-26T23:34:08.961Z,0.87
2023-03-26T23:36:39.248Z,0.88
2023-03-26T23:39:10.975Z,1.04
2023-03-26T23:41:43.985Z,0.96
2023-03-26T23:44:14.702Z,0.83
2023-03-26T23:46:44.740Z,1.01
2023-03-26T23:49:15.050Z,0.82
2023-03-26T23:51:45.030Z,0.91
2023-03-26T23:54:15.309Z,1.01
2023-03-26T23:56:48.148Z,1.16
2023-03-26T23:59:18.134Z,1.06
